Time,TemperatureF,DewpointF,PressureIn,WindDirection,WindDirectionDegrees,WindSpeedMPH,WindSpeedGustMPH,Humidity,HourlyPrecipIn,Conditions,Clouds,dailyrainin,SoftwareType,DateUTC
2013-05-03 00:01:00,73.0,24.3,29.83,North,0,2.0,3.8,16,0.00,,,-99.99,meteobridge,2013-05-02 21:01:00,
2013-05-03 00:06:00,72.9,24.1,29.83,NNE,22,1.3,3.8,16,0.00,,,0.00,meteobridge,2013-05-02 21:06:00,
2013-05-03 00:13:00,72.7,23.9,29.83,NNW,338,3.1,5.6,16,0.00,,,0.00,meteobridge,2013-05-02 21:13:00,
2013-05-03 00:18:00,72.7,23.9,29.83,North,0,3.6,5.4,16,0.00,,,0.00,meteobridge,2013-05-02 21:18:00,
2013-05-03 00:29:00,72.7,23.9,29.83,NNE,22,3.4,7.2,16,0.00,,,0.00,meteobridge,2013-05-02 21:29:00,
2013-05-03 00:34:00,72.5,23.9,29.83,NNW,338,6.9,6.9,16,0.00,,,0.00,meteobridge,2013-05-02 21:34:00,
2013-05-03 00:39:00,72.5,23.9,29.83,NE,45,2.0,5.6,16,0.00,,,0.00,meteobridge,2013-05-02 21:39:00,
2013-05-03 00:44:00,72.3,23.7,29.83,SE,135,3.1,6.7,16,0.00,,,0.00,meteobridge,2013-05-02 21:44:00,
2013-05-03 00:49:00,72.1,23.5,29.83,NE,45,3.1,4.3,16,0.00,,,0.00,meteobridge,2013-05-02 21:49:00,
2013-05-03 00:54:00,71.8,23.2,29.85,NNE,22,1.6,2.2,16,0.00,,,0.00,meteobridge,2013-05-02 21:54:00,
2013-05-03 00:59:00,71.6,23.2,29.85,NNE,22,2.5,2.5,16,0.00,,,0.00,meteobridge,2013-05-02 21:59:00,
2013-05-03 01:04:00,71.6,23.2,29.85,NNE,22,1.1,3.4,16,0.00,,,0.00,meteobridge,2013-05-02 22:04:00,
2013-05-03 01:11:00,71.4,24.4,29.83,ENE,68,2.0,2.5,17,0.00,,,0.00,meteobridge,2013-05-02 22:11:00,
2013-05-03 01:19:00,71.2,27.0,29.83,NNE,22,1.6,1.6,19,0.00,,,0.00,meteobridge,2013-05-02 22:19:00,
2013-05-03 01:24:00,71.2,27.0,29.83,NNE,22,2.2,2.2,19,0.00,,,0.00,meteobridge,2013-05-02 22:24:00,
2013-05-03 01:29:00,71.2,27.0,29.83,NNE,22,2.5,3.1,19,0.00,,,0.00,meteobridge,2013-05-02 22:29:00,
2013-05-03 01:34:00,71.1,26.8,29.83,ENE,68,2.5,2.9,19,0.00,,,0.00,meteobridge,2013-05-02 22:34:00,
2013-05-03 01:39:00,70.9,26.6,29.83,ENE,68,2.5,2.7,19,0.00,,,0.00,meteobridge,2013-05-02 22:39:00,
2013-05-03 01:44:00,70.9,26.6,29.83,NNE,22,0.0,2.0,19,0.00,,,0.00,meteobridge,2013-05-02 22:44:00,
2013-05-03 01:50:00,70.9,26.6,29.83,North,0,2.0,2.0,19,0.00,,,0.00,meteobridge,2013-05-02 22:50:00,
2013-05-03 01:55:00,70.9,26.6,29.80,North,0,1.1,1.3,19,0.00,,,0.00,meteobridge,2013-05-02 22:55:00,
2013-05-03 02:00:00,70.5,26.4,29.80,NNE,22,0.9,2.2,19,0.00,,,0.00,meteobridge,2013-05-02 23:00:00,
2013-05-03 02:05:00,70.2,26.1,29.80,NNE,22,0.0,0.0,19,0.00,,,0.00,meteobridge,2013-05-02 23:05:00,
2013-05-03 02:10:00,70.2,26.1,29.80,North,0,0.0,0.0,19,0.00,,,0.00,meteobridge,2013-05-02 23:10:00,
2013-05-03 02:15:00,70.0,25.9,29.80,North,0,1.3,1.3,19,0.00,,,0.00,meteobridge,2013-05-02 23:15:00,
2013-05-03 02:20:00,70.0,25.9,29.80,North,0,1.6,2.2,19,0.00,,,0.00,meteobridge,2013-05-02 23:20:00,
2013-05-03 02:25:00,70.0,25.9,29.80,North,0,2.0,2.0,19,0.00,,,0.00,meteobridge,2013-05-02 23:25:00,
2013-05-03 02:30:00,69.8,25.7,29.80,North,0,1.1,1.6,19,0.00,,,0.00,meteobridge,2013-05-02 23:30:00,
2013-05-03 02:35:00,69.4,26.6,29.80,North,0,0.0,0.0,20,0.00,,,0.00,meteobridge,2013-05-02 23:35:00,
2013-05-03 02:41:00,69.4,22.8,29.80,North,0,0.9,1.3,17,0.00,,,0.00,meteobridge,2013-05-02 23:41:00,
2013-05-03 02:46:00,69.3,22.6,29.80,North,0,0.0,1.3,17,0.00,,,0.00,meteobridge,2013-05-02 23:46:00,
2013-05-03 02:51:00,69.1,22.5,29.80,East,90,2.0,2.0,17,0.00,,,0.00,meteobridge,2013-05-02 23:51:00,
2013-05-03 02:56:00,69.1,22.5,29.80,NNE,22,0.0,0.9,17,0.00,,,0.00,meteobridge,2013-05-02 23:56:00,
2013-05-03 03:01:00,68.9,26.2,29.80,SE,135,2.0,2.5,20,0.00,,,0.00,meteobridge,2013-05-03 00:01:00,
2013-05-03 03:07:00,68.9,26.2,29.80,SE,135,0.0,0.9,20,0.00,,,0.00,meteobridge,2013-05-03 00:07:00,
2013-05-03 03:12:00,69.1,22.5,29.80,SSE,158,0.0,0.0,17,0.00,,,0.00,meteobridge,2013-05-03 00:12:00,
2013-05-03 03:17:00,68.9,26.2,29.80,NNE,22,0.0,1.1,20,0.00,,,0.00,meteobridge,2013-05-03 00:17:00,
2013-05-03 03:22:00,68.9,26.2,29.80,North,0,0.0,0.0,20,0.00,,,0.00,meteobridge,2013-05-03 00:22:00,
2013-05-03 03:27:00,68.4,25.9,29.80,ENE,68,0.0,0.0,20,0.00,,,0.00,meteobridge,2013-05-03 00:27:00,
2013-05-03 03:32:00,68.4,25.9,29.80,ESE,112,0.0,0.0,20,0.00,,,0.00,meteobridge,2013-05-03 00:32:00,
2013-05-03 03:37:00,68.2,25.7,29.80,ESE,112,0.0,0.0,20,0.00,,,0.00,meteobridge,2013-05-03 00:37:00,
2013-05-03 03:43:00,68.2,25.7,29.80,North,0,0.9,2.0,20,0.00,,,0.00,meteobridge,2013-05-03 00:43:00,
2013-05-03 03:48:00,68.0,25.5,29.80,North,0,0.0,0.0,20,0.00,,,0.00,meteobridge,2013-05-03 00:48:00,
2013-05-03 03:54:00,67.8,25.3,29.80,North,0,0.0,0.0,20,0.00,,,0.00,meteobridge,2013-05-03 00:54:00,
2013-05-03 04:00:00,67.5,25.0,29.77,North,0,0.0,0.0,20,0.00,,,0.00,meteobridge,2013-05-03 01:00:00,
2013-05-03 04:06:00,67.3,25.0,29.77,North,0,0.0,0.0,20,0.00,,,0.00,meteobridge,2013-05-03 01:06:00,
2013-05-03 04:11:00,67.1,24.8,29.77,NNE,22,0.0,0.0,20,0.00,,,0.00,meteobridge,2013-05-03 01:11:00,
2013-05-03 04:16:00,67.1,24.8,29.77,North,0,0.0,0.0,20,0.00,,,0.00,meteobridge,2013-05-03 01:16:00,
2013-05-03 04:21:00,67.1,24.8,29.77,NNE,22,0.0,0.0,20,0.00,,,0.00,meteobridge,2013-05-03 01:21:00,
2013-05-03 04:26:00,66.9,24.6,29.77,East,90,0.0,2.0,20,0.00,,,0.00,meteobridge,2013-05-03 01:26:00,
2013-05-03 04:31:00,67.1,27.0,29.77,ESE,112,0.9,1.3,22,0.00,,,0.00,meteobridge,2013-05-03 01:31:00,
2013-05-03 04:36:00,67.1,24.8,29.77,East,90,0.0,0.0,20,0.00,,,0.00,meteobridge,2013-05-03 01:36:00,
2013-05-03 04:41:00,66.9,24.6,29.77,East,90,0.0,0.0,20,0.00,,,0.00,meteobridge,2013-05-03 01:41:00,
2013-05-03 04:46:00,66.7,24.4,29.77,East,90,0.0,0.0,20,0.00,,,0.00,meteobridge,2013-05-03 01:46:00,
2013-05-03 04:51:00,66.6,24.3,29.77,East,90,0.0,0.0,20,0.00,,,0.00,meteobridge,2013-05-03 01:51:00,
2013-05-03 04:57:00,66.4,26.4,29.77,East,90,0.0,0.0,22,0.00,,,0.00,meteobridge,2013-05-03 01:57:00,
2013-05-03 05:02:00,66.2,26.2,29.77,ENE,68,1.1,1.6,22,0.00,,,0.00,meteobridge,2013-05-03 02:02:00,
2013-05-03 05:07:00,66.2,26.2,29.77,NE,45,0.0,0.0,22,0.00,,,0.00,meteobridge,2013-05-03 02:07:00,
2013-05-03 05:12:00,66.2,26.2,29.77,NNE,22,0.0,1.3,22,0.00,,,0.00,meteobridge,2013-05-03 02:12:00,
2013-05-03 05:17:00,66.0,27.1,29.77,NNE,22,0.0,0.0,23,0.00,,,0.00,meteobridge,2013-05-03 02:17:00,
2013-05-03 05:22:00,66.0,27.1,29.77,NNE,22,1.1,1.3,23,0.00,,,0.00,meteobridge,2013-05-03 02:22:00,
2013-05-03 05:27:00,65.8,27.1,29.74,NNE,22,0.0,0.0,23,0.00,,,0.00,meteobridge,2013-05-03 02:27:00,
2013-05-03 05:32:00,65.7,27.0,29.74,NNE,22,0.0,0.0,23,0.00,,,0.00,meteobridge,2013-05-03 02:32:00,
2013-05-03 05:37:00,65.5,26.8,29.74,NNE,22,0.0,0.0,23,0.00,,,0.00,meteobridge,2013-05-03 02:37:00,
2013-05-03 05:42:00,65.3,26.6,29.77,NNE,22,0.0,0.0,23,0.00,,,0.00,meteobridge,2013-05-03 02:42:00,
2013-05-03 05:47:00,65.5,26.8,29.77,East,90,0.0,0.9,23,0.00,,,0.00,meteobridge,2013-05-03 02:47:00,
2013-05-03 05:52:00,65.3,26.6,29.77,East,90,0.0,0.0,23,0.00,,,0.00,meteobridge,2013-05-03 02:52:00,
2013-05-03 05:57:00,65.3,26.6,29.77,East,90,0.0,0.0,23,0.00,,,0.00,meteobridge,2013-05-03 02:57:00,
2013-05-03 06:03:00,65.1,26.4,29.77,East,90,0.0,0.0,23,0.00,,,0.00,meteobridge,2013-05-03 03:03:00,
2013-05-03 06:08:00,65.3,26.6,29.77,East,90,0.0,0.0,23,0.00,,,0.00,meteobridge,2013-05-03 03:08:00,
2013-05-03 06:13:00,65.1,26.4,29.77,ESE,112,0.0,0.0,23,0.00,,,0.00,meteobridge,2013-05-03 03:13:00,
2013-05-03 06:18:00,65.1,26.4,29.77,ESE,112,0.0,0.0,23,0.00,,,0.00,meteobridge,2013-05-03 03:18:00,
2013-05-03 06:23:00,65.3,26.6,29.77,East,90,0.9,0.9,23,0.00,,,0.00,meteobridge,2013-05-03 03:23:00,
2013-05-03 06:28:00,65.5,26.8,29.77,North,0,0.0,1.6,23,0.00,,,0.00,meteobridge,2013-05-03 03:28:00,
2013-05-03 06:34:00,65.3,26.6,29.77,ENE,68,1.3,1.3,23,0.00,,,0.00,meteobridge,2013-05-03 03:34:00,
2013-05-03 06:43:00,65.7,27.0,29.77,NNE,22,0.0,0.0,23,0.00,,,0.00,meteobridge,2013-05-03 03:43:00,
2013-05-03 06:48:00,65.5,27.9,29.77,NNE,22,0.0,0.0,24,0.00,,,0.00,meteobridge,2013-05-03 03:48:00,
2013-05-03 06:53:00,65.7,27.9,29.77,ESE,112,0.0,2.5,24,0.00,,,0.00,meteobridge,2013-05-03 03:53:00,
2013-05-03 06:58:00,65.8,28.0,29.77,ESE,112,0.0,0.0,24,0.00,,,0.00,meteobridge,2013-05-03 03:58:00,
2013-05-03 07:01:00,66.7,28.9,29.77,East,90,0.0,0.0,24,0.00,,,0.00,meteobridge,2013-05-03 04:01:00,
2013-05-03 07:06:00,68.2,28.9,29.77,NNE,22,0.0,1.3,23,0.00,,,0.00,meteobridge,2013-05-03 04:06:00,
2013-05-03 07:11:00,69.4,30.0,29.77,NNE,22,0.0,0.0,23,0.00,,,0.00,meteobridge,2013-05-03 04:11:00,
2013-05-03 07:17:00,70.9,30.2,29.77,North,0,0.0,0.0,22,0.00,,,0.00,meteobridge,2013-05-03 04:17:00,
2013-05-03 07:22:00,72.0,31.1,29.77,North,0,0.0,0.0,22,0.00,,,0.00,meteobridge,2013-05-03 04:22:00,
2013-05-03 07:27:00,74.3,31.8,29.77,North,0,0.0,0.0,21,0.00,,,0.00,meteobridge,2013-05-03 04:27:00,
2013-05-03 07:32:00,75.6,31.6,29.77,East,90,0.0,0.0,20,0.00,,,0.00,meteobridge,2013-05-03 04:32:00,
2013-05-03 07:39:00,76.6,30.0,29.77,ESE,112,0.0,0.0,18,0.00,,,0.00,meteobridge,2013-05-03 04:39:00,
2013-05-03 07:44:00,78.4,31.5,29.77,SE,135,0.0,0.0,18,0.00,,,0.00,meteobridge,2013-05-03 04:44:00,
2013-05-03 07:49:00,79.2,30.6,29.77,SE,135,0.0,0.0,17,0.00,,,0.00,meteobridge,2013-05-03 04:49:00,
2013-05-03 07:54:00,80.4,31.6,29.77,East,90,1.1,1.3,17,0.00,,,0.00,meteobridge,2013-05-03 04:54:00,
2013-05-03 07:59:00,80.6,27.1,29.77,East,90,1.3,1.3,14,0.00,,,0.00,meteobridge,2013-05-03 04:59:00,
2013-05-03 08:04:00,80.8,27.1,29.77,East,90,1.3,1.3,14,0.00,,,0.00,meteobridge,2013-05-03 05:04:00,
2013-05-03 08:09:00,81.7,27.9,29.77,ENE,68,0.0,1.1,14,0.00,,,0.00,meteobridge,2013-05-03 05:09:00,
2013-05-03 08:14:00,81.9,28.0,29.77,East,90,1.3,2.9,14,0.00,,,0.00,meteobridge,2013-05-03 05:14:00,
2013-05-03 08:19:00,81.7,27.9,29.77,SE,135,1.6,2.5,14,0.00,,,0.00,meteobridge,2013-05-03 05:19:00,
2013-05-03 08:24:00,82.2,28.4,29.77,ESE,112,2.2,2.2,14,0.00,,,0.00,meteobridge,2013-05-03 05:24:00,
2013-05-03 08:29:00,82.6,28.6,29.77,NNE,22,1.1,2.5,14,0.00,,,0.00,meteobridge,2013-05-03 05:29:00,
2013-05-03 08:35:00,83.3,29.1,29.77,North,0,0.0,0.0,14,0.00,,,0.00,meteobridge,2013-05-03 05:35:00,
2013-05-03 08:40:00,85.1,28.8,29.80,ESE,112,0.0,2.0,13,0.00,,,0.00,meteobridge,2013-05-03 05:40:00,
2013-05-03 08:45:00,85.6,29.3,29.80,SE,135,0.0,1.6,13,0.00,,,0.00,meteobridge,2013-05-03 05:45:00,
2013-05-03 08:50:00,85.8,29.3,29.80,SE,135,1.3,2.5,13,0.00,,,0.00,meteobridge,2013-05-03 05:50:00,
2013-05-03 08:55:00,86.0,29.5,29.80,SE,135,0.0,1.1,13,0.00,,,0.00,meteobridge,2013-05-03 05:55:00,
2013-05-03 09:01:00,86.7,30.0,29.80,ESE,112,2.0,2.5,13,0.00,,,0.00,meteobridge,2013-05-03 06:01:00,
2013-05-03 09:06:00,86.5,29.8,29.80,SE,135,0.0,2.9,13,0.00,,,0.00,meteobridge,2013-05-03 06:06:00,
2013-05-03 09:11:00,86.7,30.0,29.77,NNE,22,0.0,2.0,13,0.00,,,0.00,meteobridge,2013-05-03 06:11:00,
2013-05-03 09:16:00,87.1,30.4,29.77,NNE,22,1.6,2.2,13,0.00,,,0.00,meteobridge,2013-05-03 06:16:00,
2013-05-03 09:22:00,87.1,30.4,29.77,North,0,2.0,2.0,13,0.00,,,0.00,meteobridge,2013-05-03 06:22:00,
2013-05-03 09:28:00,86.9,30.2,29.77,NNE,22,2.7,2.7,13,0.00,,,0.00,meteobridge,2013-05-03 06:28:00,
2013-05-03 09:33:00,87.1,30.4,29.77,NNE,22,1.3,1.6,13,0.00,,,0.00,meteobridge,2013-05-03 06:33:00,
2013-05-03 09:38:00,87.4,30.6,29.77,NNE,22,1.3,2.9,13,0.00,,,0.00,meteobridge,2013-05-03 06:38:00,
2013-05-03 09:43:00,88.2,31.1,29.77,NNE,22,2.0,3.1,13,0.00,,,0.00,meteobridge,2013-05-03 06:43:00,
2013-05-03 09:48:00,88.2,31.1,29.77,NNE,22,1.3,1.6,13,0.00,,,0.00,meteobridge,2013-05-03 06:48:00,
2013-05-03 09:53:00,89.1,31.8,29.80,North,0,1.6,2.2,13,0.00,,,0.00,meteobridge,2013-05-03 06:53:00,
2013-05-03 09:58:00,89.6,30.4,29.80,SE,135,2.5,2.7,12,0.00,,,0.00,meteobridge,2013-05-03 06:58:00,
2013-05-03 10:03:00,89.6,30.4,29.80,WNW,292,1.6,1.6,12,0.00,,,0.00,meteobridge,2013-05-03 07:03:00,
2013-05-03 10:08:00,88.5,31.5,29.77,WNW,292,2.0,3.8,13,0.00,,,0.00,meteobridge,2013-05-03 07:08:00,
2013-05-03 10:13:00,89.8,30.4,29.77,NNW,338,2.2,2.2,12,0.00,,,0.00,meteobridge,2013-05-03 07:13:00,
2013-05-03 10:18:00,90.7,31.1,29.77,ESE,112,1.1,2.9,12,0.00,,,0.00,meteobridge,2013-05-03 07:18:00,
2013-05-03 10:23:00,90.9,31.3,29.77,NNW,338,0.0,0.0,12,0.00,,,0.00,meteobridge,2013-05-03 07:23:00,
2013-05-03 10:28:00,90.5,31.1,29.80,NNE,22,3.4,3.4,12,0.00,,,0.00,meteobridge,2013-05-03 07:28:00,
2013-05-03 10:33:00,90.0,30.6,29.80,NW,315,1.6,2.2,12,0.00,,,0.00,meteobridge,2013-05-03 07:33:00,
2013-05-03 10:38:00,90.5,31.1,29.77,NNW,338,1.6,2.5,12,0.00,,,0.00,meteobridge,2013-05-03 07:38:00,
2013-05-03 10:43:00,88.3,31.3,29.77,North,0,5.8,8.5,13,0.00,,,0.00,meteobridge,2013-05-03 07:43:00,
2013-05-03 10:48:00,87.8,30.9,29.77,NNE,22,6.3,10.1,13,0.00,,,0.00,meteobridge,2013-05-03 07:48:00,
2013-05-03 10:53:00,87.1,30.4,29.77,ESE,112,3.4,9.6,13,0.00,,,0.00,meteobridge,2013-05-03 07:53:00,
2013-05-03 11:01:00,86.7,30.0,29.77,NNE,22,4.9,6.0,13,0.00,,,0.00,meteobridge,2013-05-03 08:01:00,
2013-05-03 11:12:00,86.7,30.0,29.77,NNW,338,4.7,10.3,13,0.00,,,0.00,meteobridge,2013-05-03 08:12:00,
2013-05-03 11:28:00,87.8,30.9,29.77,NNE,22,2.9,6.0,13,0.00,,,0.00,meteobridge,2013-05-03 08:28:00,
2013-05-03 11:33:00,88.3,31.3,29.77,NE,45,2.2,4.3,13,0.00,,,0.00,meteobridge,2013-05-03 08:33:00,
2013-05-03 11:38:00,88.3,31.3,29.77,North,0,3.8,5.8,13,0.00,,,0.00,meteobridge,2013-05-03 08:38:00,
2013-05-03 11:44:00,88.0,31.1,29.77,North,0,4.0,6.0,13,0.00,,,0.00,meteobridge,2013-05-03 08:44:00,
2013-05-03 11:49:00,87.6,30.7,29.77,ENE,68,2.7,4.3,13,0.00,,,0.00,meteobridge,2013-05-03 08:49:00,
2013-05-03 11:54:00,87.8,30.9,29.77,NNE,22,5.4,6.5,13,0.00,,,0.00,meteobridge,2013-05-03 08:54:00,
2013-05-03 11:59:00,87.3,30.6,29.77,North,0,2.0,9.4,13,0.00,,,0.00,meteobridge,2013-05-03 08:59:00,
2013-05-03 12:04:00,86.9,30.2,29.77,North,0,5.6,10.3,13,0.00,,,0.00,meteobridge,2013-05-03 09:04:00,
2013-05-03 12:09:00,86.9,30.2,29.77,North,0,3.6,7.6,13,0.00,,,0.00,meteobridge,2013-05-03 09:09:00,
2013-05-03 12:14:00,87.3,30.6,29.77,North,0,3.8,7.6,13,0.00,,,0.00,meteobridge,2013-05-03 09:14:00,
2013-05-03 12:19:00,87.3,30.6,29.77,NNE,22,2.5,5.4,13,0.00,,,0.00,meteobridge,2013-05-03 09:19:00,
2013-05-03 12:24:00,88.2,31.1,29.77,North,0,4.3,5.8,13,0.00,,,0.00,meteobridge,2013-05-03 09:24:00,
2013-05-03 12:29:00,88.0,31.1,29.77,North,0,3.4,7.2,13,0.00,,,0.00,meteobridge,2013-05-03 09:29:00,
2013-05-03 12:35:00,87.6,30.7,29.77,NNE,22,5.6,7.2,13,0.00,,,0.00,meteobridge,2013-05-03 09:35:00,
2013-05-03 12:40:00,88.7,31.6,29.77,NE,45,4.3,5.4,13,0.00,,,0.00,meteobridge,2013-05-03 09:40:00,
2013-05-03 12:45:00,89.2,32.0,29.77,West,270,3.1,4.3,13,0.00,,,0.00,meteobridge,2013-05-03 09:45:00,
2013-05-03 12:50:00,90.1,30.7,29.77,NNE,22,2.0,3.8,12,0.00,,,0.00,meteobridge,2013-05-03 09:50:00,
2013-05-03 12:56:00,91.0,31.5,29.77,NNE,22,4.9,4.9,12,0.00,,,0.00,meteobridge,2013-05-03 09:56:00,
2013-05-03 13:01:00,90.1,30.7,29.77,NNW,338,6.3,6.3,12,0.00,,,0.00,meteobridge,2013-05-03 10:01:00,
2013-05-03 13:06:00,90.5,31.1,29.77,East,90,2.7,4.0,12,0.00,,,0.00,meteobridge,2013-05-03 10:06:00,
2013-05-03 13:11:00,91.8,32.0,29.77,North,0,0.0,2.0,12,0.00,,,0.00,meteobridge,2013-05-03 10:11:00,
2013-05-03 13:16:00,92.8,32.9,29.77,NNW,338,3.4,3.6,12,0.00,,,0.00,meteobridge,2013-05-03 10:16:00,
2013-05-03 13:21:00,92.5,32.5,29.77,NNW,338,2.5,3.1,12,0.00,,,0.00,meteobridge,2013-05-03 10:21:00,
2013-05-03 13:26:00,92.8,32.9,29.77,NE,45,2.7,3.6,12,0.00,,,0.00,meteobridge,2013-05-03 10:26:00,
2013-05-03 13:31:00,93.4,31.1,29.77,South,180,1.3,3.4,11,0.00,,,0.00,meteobridge,2013-05-03 10:31:00,
2013-05-03 13:36:00,93.4,31.1,29.77,East,90,3.1,3.8,11,0.00,,,0.00,meteobridge,2013-05-03 10:36:00,
2013-05-03 13:42:00,93.0,32.9,29.77,SE,135,2.5,2.5,12,0.00,,,0.00,meteobridge,2013-05-03 10:42:00,
2013-05-03 13:48:00,93.0,32.9,29.77,NNW,338,2.9,2.9,12,0.00,,,0.00,meteobridge,2013-05-03 10:48:00,
2013-05-03 13:53:00,92.1,32.2,29.74,SSW,202,1.3,2.7,12,0.00,,,0.00,meteobridge,2013-05-03 10:53:00,
2013-05-03 13:58:00,93.2,30.9,29.74,WNW,292,1.1,3.6,11,0.00,,,0.00,meteobridge,2013-05-03 10:58:00,
2013-05-03 14:03:00,92.8,32.9,29.74,West,270,2.0,2.7,12,0.00,,,0.00,meteobridge,2013-05-03 11:03:00,
2013-05-03 16:11:00,-999.0,-99.9,-100.00,North,-999,-999.0,-999.0,-999,-99.99,,,-99.99,,2013-05-03 13:11:00,
2013-05-03 16:18:00,-999.0,-99.9,-100.00,North,-999,-999.0,-999.0,-999,-99.99,,,-99.99,,2013-05-03 13:18:00,
2013-05-03 17:01:00,-999.0,-99.9,-100.00,North,-999,-999.0,-999.0,-999,-99.99,,,-99.99,,2013-05-03 14:01:00,
2013-05-03 17:06:00,-999.0,-99.9,-100.00,North,-999,-999.0,-999.0,-999,-99.99,,,-99.99,,2013-05-03 14:06:00,
2013-05-03 22:35:00,72.7,38.7,29.77,NNW,338,1.3,1.6,29,0.00,,,0.00,meteobridge,2013-05-03 19:35:00,
2013-05-03 22:40:00,72.5,38.5,29.77,NNE,22,1.3,1.6,29,0.00,,,0.00,meteobridge,2013-05-03 19:40:00,
2013-05-03 22:45:00,72.3,38.3,29.77,NNE,22,1.1,1.3,29,0.00,,,0.00,meteobridge,2013-05-03 19:45:00,
2013-05-03 22:50:00,72.1,39.0,29.77,NNE,22,0.0,0.0,30,0.00,,,0.00,meteobridge,2013-05-03 19:50:00,
2013-05-03 23:01:00,72.0,38.8,29.77,North,0,1.1,1.1,30,0.00,,,0.00,meteobridge,2013-05-03 20:01:00,
2013-05-03 23:06:00,72.1,39.9,29.77,North,0,1.1,1.1,31,0.00,,,0.00,meteobridge,2013-05-03 20:06:00,
2013-05-03 23:11:00,72.1,39.9,29.77,NNW,338,0.0,2.0,31,0.00,,,0.00,meteobridge,2013-05-03 20:11:00,
2013-05-03 23:16:00,72.1,39.9,29.77,NNE,22,0.9,1.1,31,0.00,,,0.00,meteobridge,2013-05-03 20:16:00,
2013-05-03 23:21:00,72.1,39.9,29.77,NNE,22,1.1,1.6,31,0.00,,,0.00,meteobridge,2013-05-03 20:21:00,
2013-05-03 23:26:00,72.1,40.6,29.77,North,0,0.0,0.0,32,0.00,,,0.00,meteobridge,2013-05-03 20:26:00,
2013-05-03 23:31:00,72.0,40.5,29.77,NNW,338,0.9,1.1,32,0.00,,,0.00,meteobridge,2013-05-03 20:31:00,
2013-05-03 23:36:00,72.0,40.5,29.77,WNW,292,1.3,2.2,32,0.00,,,0.00,meteobridge,2013-05-03 20:36:00,
2013-05-03 23:41:00,71.8,40.3,29.77,North,0,1.1,1.3,32,0.00,,,0.00,meteobridge,2013-05-03 20:41:00,
2013-05-03 23:49:00,71.6,40.3,29.77,North,0,1.3,1.6,32,0.00,,,0.00,meteobridge,2013-05-03 20:49:00,
2013-05-03 23:55:00,71.6,40.3,29.77,North,0,0.9,1.3,32,0.00,,,0.00,meteobridge,2013-05-03 20:55:00,